createdAt,value
2023-04-23T00:00:48.757Z,29.65
2023-04-23T00:03:50.039Z,29.38
2023-04-23T00:06:50.790Z,29.66
2023-04-23T00:09:51.790Z,29.40
2023-04-23T00:12:52.781Z,29.62
2023-04-23T00:15:53.790Z,29.47
2023-04-23T00:18:54.782Z,29.50
2023-04-23T00:21:55.789Z,29.39
2023-04-23T00:24:56.817Z,29.19
2023-04-23T00:27:57.827Z,29.36
2023-04-23T00:30:58.831Z,29.47
2023-04-23T00:33:59.752Z,29.42
2023-04-23T00:37:00.824Z,29.27
2023-04-23T00:40:01.803Z,29.66
2023-04-23T00:43:02.962Z,29.57
2023-04-23T00:46:03.872Z,29.59
2023-04-23T00:49:04.830Z,29.39
2023-04-23T00:52:05.804Z,29.47
2023-04-23T00:55:06.791Z,29.63
2023-04-23T00:58:07.854Z,29.63
2023-04-23T01:01:10.813Z,29.36
2023-04-23T01:04:13.028Z,29.61
2023-04-23T01:07:13.785Z,29.41
2023-04-23T01:10:14.842Z,29.46
2023-04-23T01:13:15.728Z,29.27
2023-04-23T01:16:16.906Z,29.51
2023-04-23T01:19:19.762Z,29.15
2023-04-23T01:22:38.799Z,29.44
2023-04-23T01:25:39.731Z,29.74
2023-04-23T01:28:40.821Z,29.77
2023-04-23T01:31:41.783Z,29.69
2023-04-23T01:34:44.034Z,29.70
2023-04-23T01:37:45.757Z,29.25
2023-04-23T01:40:46.825Z,29.31
2023-04-23T01:43:48.729Z,29.43
2023-04-23T01:46:49.855Z,29.52
2023-04-23T01:49:50.740Z,29.46
2023-04-23T01:52:52.805Z,29.41
2023-04-23T01:55:47.817Z,29.34
2023-04-23T01:58:42.090Z,29.31
2023-04-23T02:01:54.806Z,29.38
2023-04-23T02:04:57.775Z,29.29
2023-04-23T02:08:02.780Z,29.61
2023-04-23T02:11:03.767Z,29.66
2023-04-23T02:14:04.748Z,29.25
2023-04-23T02:17:05.778Z,29.29
2023-04-23T02:20:06.768Z,29.44
2023-04-23T02:23:07.830Z,29.22
2023-04-23T02:26:08.759Z,29.30
2023-04-23T02:29:09.786Z,29.14
2023-04-23T02:32:10.753Z,29.21
2023-04-23T02:35:12.851Z,29.02
2023-04-23T02:38:13.788Z,29.41
2023-04-23T02:41:14.811Z,29.29
2023-04-23T02:44:15.740Z,28.98
2023-04-23T02:47:16.783Z,29.31
2023-04-23T02:50:17.710Z,29.19
2023-04-23T02:53:18.783Z,29.24
2023-04-23T02:56:19.746Z,29.51
2023-04-23T02:59:20.880Z,29.21
2023-04-23T03:02:21.827Z,29.30
2023-04-23T03:05:22.896Z,29.12
2023-04-23T03:08:23.769Z,29.23
2023-04-23T03:11:24.789Z,29.10
2023-04-23T03:14:25.724Z,29.20
2023-04-23T03:17:26.844Z,29.21
2023-04-23T03:20:27.743Z,29.23
2023-04-23T03:23:28.758Z,29.26
2023-04-23T03:26:29.745Z,29.34
2023-04-23T03:29:30.765Z,29.41
2023-04-23T03:32:31.785Z,29.40
2023-04-23T03:35:32.778Z,29.39
2023-04-23T03:38:38.716Z,29.28
2023-04-23T03:41:39.785Z,29.33
2023-04-23T03:44:42.989Z,29.27
2023-04-23T03:47:43.822Z,29.18
2023-04-23T03:50:45.744Z,29.17
2023-04-23T03:54:02.770Z,29.05
2023-04-23T03:57:01.439Z,29.05
2023-04-23T03:59:58.950Z,29.13
2023-04-23T04:03:06.899Z,29.15
2023-04-23T04:06:07.787Z,29.11
2023-04-23T04:09:08.706Z,29.12
2023-04-23T04:12:10.783Z,29.19
2023-04-23T04:15:11.747Z,29.24
2023-04-23T04:18:13.772Z,29.21
2023-04-23T04:21:14.720Z,29.24
2023-04-23T04:24:15.815Z,29.23
2023-04-23T04:27:16.737Z,29.18
2023-04-23T04:30:17.773Z,29.45
2023-04-23T04:33:18.729Z,29.34
2023-04-23T04:36:19.814Z,29.26
2023-04-23T04:39:23.721Z,29.26
2023-04-23T04:42:24.779Z,29.29
2023-04-23T04:45:25.777Z,29.62
2023-04-23T04:48:26.806Z,29.19
2023-04-23T04:51:27.728Z,29.31
2023-04-23T04:54:28.760Z,29.45
2023-04-23T04:57:29.717Z,29.38
2023-04-23T05:00:36.010Z,29.34
2023-04-23T05:03:36.975Z,29.43
2023-04-23T05:06:38.788Z,29.22
2023-04-23T05:09:39.722Z,29.40
2023-04-23T05:12:40.779Z,29.60
2023-04-23T05:15:41.723Z,29.58
2023-04-23T05:18:42.801Z,29.35
2023-04-23T05:21:43.725Z,29.54
2023-04-23T05:24:44.779Z,29.80
2023-04-23T05:27:45.784Z,29.88
2023-04-23T05:30:46.763Z,29.76
2023-04-23T05:33:50.395Z,29.44
2023-04-23T05:36:51.747Z,29.72
2023-04-23T05:39:52.711Z,29.57
2023-04-23T05:42:53.786Z,29.67
2023-04-23T05:45:54.740Z,29.43
2023-04-23T05:48:55.740Z,29.66
2023-04-23T05:51:56.696Z,29.78
2023-04-23T05:54:57.738Z,29.89
2023-04-23T05:57:58.715Z,29.56
2023-04-23T06:01:00.041Z,30.13
2023-04-23T06:04:00.911Z,30.09
2023-04-23T06:07:01.798Z,29.90
2023-04-23T06:10:02.730Z,29.74
2023-04-23T06:13:03.781Z,29.71
2023-04-23T06:16:04.741Z,29.87
2023-04-23T06:19:05.738Z,29.63
2023-04-23T06:22:06.725Z,29.49
2023-04-23T06:25:07.754Z,29.79
2023-04-23T06:28:08.701Z,30.09
2023-04-23T06:31:25.740Z,29.93
2023-04-23T06:34:26.717Z,29.77
2023-04-23T06:37:29.502Z,30.11
2023-04-23T06:40:30.707Z,29.98
2023-04-23T06:43:31.734Z,30.27
2023-04-23T06:46:47.721Z,30.04
2023-04-23T06:49:48.736Z,30.33
2023-04-23T06:52:49.686Z,29.94
2023-04-23T06:55:50.724Z,29.90
2023-04-23T06:58:44.791Z,29.92
2023-04-23T07:01:42.936Z,29.75
2023-04-23T07:04:44.328Z,30.12
2023-04-23T07:07:45.717Z,29.74
2023-04-23T07:10:46.701Z,29.96
2023-04-23T07:13:47.896Z,29.91
2023-04-23T07:16:48.716Z,29.95
2023-04-23T07:19:49.731Z,29.87
2023-04-23T07:22:50.709Z,30.23
2023-04-23T07:25:51.766Z,30.15
2023-04-23T07:28:54.712Z,30.38
2023-04-23T07:31:55.880Z,30.24
2023-04-23T07:34:56.715Z,30.29
2023-04-23T07:38:00.762Z,30.23
2023-04-23T07:41:01.693Z,30.23
2023-04-23T07:44:02.766Z,30.19
2023-04-23T07:47:03.703Z,30.30
2023-04-23T07:50:04.734Z,30.19
2023-04-23T07:53:05.718Z,30.44
2023-04-23T07:56:06.757Z,30.46
2023-04-23T07:59:07.704Z,30.46
2023-04-23T08:02:09.123Z,30.37
2023-04-23T08:05:10.074Z,30.41
2023-04-23T08:08:10.733Z,30.64
2023-04-23T08:11:11.722Z,30.50
2023-04-23T08:14:12.749Z,30.65
2023-04-23T08:17:13.715Z,30.89
2023-04-23T08:20:14.766Z,30.72
2023-04-23T08:23:15.724Z,30.74
2023-04-23T08:26:16.754Z,30.79
2023-04-23T08:29:17.684Z,30.72
2023-04-23T08:32:18.845Z,30.81
2023-04-23T08:35:19.677Z,30.86
2023-04-23T08:38:20.710Z,30.84
2023-04-23T08:41:23.681Z,30.82
2023-04-23T08:44:24.739Z,30.74
2023-04-23T08:47:28.735Z,30.69
2023-04-23T08:50:29.746Z,31.06
2023-04-23T08:53:32.736Z,30.83
2023-04-23T08:56:34.743Z,31.16
2023-04-23T08:59:35.683Z,30.55
2023-04-23T09:02:36.890Z,30.65
2023-04-23T09:05:37.700Z,30.58
2023-04-23T09:08:38.755Z,30.61
2023-04-23T09:11:40.705Z,30.92
2023-04-23T09:14:50.739Z,30.59
2023-04-23T09:17:57.260Z,30.73
2023-04-23T09:20:58.722Z,30.66
2023-04-23T09:23:59.674Z,30.64
2023-04-23T09:27:01.740Z,30.63
2023-04-23T09:30:04.711Z,30.70
2023-04-23T09:33:05.817Z,30.55
2023-04-23T09:36:06.764Z,30.54
2023-04-23T09:39:10.739Z,30.45
2023-04-23T09:42:17.744Z,30.81
2023-04-23T09:45:18.782Z,30.91
2023-04-23T09:48:19.746Z,30.61
2023-04-23T09:51:20.776Z,30.31
2023-04-23T09:54:24.808Z,30.90
2023-04-23T09:57:25.726Z,30.89
2023-04-23T10:00:23.126Z,30.35
2023-04-23T10:03:16.864Z,30.82
2023-04-23T10:06:37.043Z,30.84
2023-04-23T10:09:39.975Z,30.61
2023-04-23T10:12:53.475Z,30.62
2023-04-23T10:15:55.995Z,30.62
2023-04-23T10:18:57.686Z,30.32
2023-04-23T10:22:08.636Z,30.57
2023-04-23T10:25:19.682Z,30.60
2023-04-23T10:28:22.735Z,30.79
2023-04-23T10:31:23.728Z,30.28
2023-04-23T10:34:24.765Z,30.52
2023-04-23T10:37:27.709Z,30.57
2023-04-23T10:40:32.728Z,30.69
2023-04-23T10:43:33.714Z,30.63
2023-04-23T10:46:44.795Z,30.60
2023-04-23T10:49:46.703Z,30.58
2023-04-23T10:52:48.724Z,30.73
2023-04-23T10:55:49.663Z,30.76
2023-04-23T10:59:03.691Z,30.25
2023-04-23T11:02:00.785Z,30.13
2023-04-23T11:05:13.842Z,30.49
2023-04-23T11:08:19.863Z,30.45
2023-04-23T11:11:21.694Z,30.51
2023-04-23T11:14:25.666Z,30.37
2023-04-23T11:17:26.726Z,30.29
2023-04-23T11:20:34.682Z,30.54
2023-04-23T11:23:44.717Z,30.69
2023-04-23T11:26:45.665Z,30.50
2023-04-23T11:29:48.716Z,30.60
2023-04-23T11:32:50.882Z,30.69
2023-04-23T11:35:51.719Z,30.05
2023-04-23T11:38:52.678Z,30.43
2023-04-23T11:41:56.719Z,30.72
2023-04-23T11:44:57.816Z,30.98
2023-04-23T11:47:59.747Z,30.60
2023-04-23T11:51:00.727Z,30.73
2023-04-23T11:54:01.702Z,30.55
2023-04-23T11:57:02.662Z,30.55
2023-04-23T12:00:06.695Z,30.61
2023-04-23T12:03:06.279Z,30.66
2023-04-23T12:06:07.763Z,30.53
2023-04-23T12:09:08.683Z,30.55
2023-04-23T12:12:09.739Z,30.88
2023-04-23T12:15:16.673Z,30.85
2023-04-23T12:18:23.789Z,30.58
2023-04-23T12:21:27.638Z,30.59
2023-04-23T12:24:28.718Z,31.05
2023-04-23T12:27:29.654Z,30.77
2023-04-23T12:30:30.712Z,30.40
2023-04-23T12:33:31.655Z,30.64
2023-04-23T12:36:32.698Z,30.39
2023-04-23T12:39:40.921Z,30.76
2023-04-23T12:42:41.765Z,30.42
2023-04-23T12:45:49.675Z,30.64
2023-04-23T12:48:50.699Z,30.17
2023-04-23T12:51:51.637Z,30.43
2023-04-23T12:54:53.726Z,30.41
2023-04-23T12:57:54.671Z,30.24
2023-04-23T13:00:55.732Z,30.55
2023-04-23T13:03:56.971Z,30.34
2023-04-23T13:06:57.890Z,30.82
2023-04-23T13:09:58.673Z,30.20
2023-04-23T13:12:59.724Z,30.43
2023-04-23T13:16:00.717Z,30.20
2023-04-23T13:19:01.702Z,30.43
2023-04-23T13:22:02.668Z,30.53
2023-04-23T13:25:06.717Z,30.39
2023-04-23T13:28:07.649Z,30.83
2023-04-23T13:31:08.694Z,30.44
2023-04-23T13:34:09.674Z,30.51
2023-04-23T13:37:12.735Z,29.96
2023-04-23T13:40:13.664Z,30.18
2023-04-23T13:43:14.707Z,30.40
2023-04-23T13:46:15.684Z,30.45
2023-04-23T13:49:16.717Z,30.49
2023-04-23T13:52:17.645Z,30.46
2023-04-23T13:55:18.706Z,30.43
2023-04-23T13:58:19.656Z,30.49
2023-04-23T14:01:22.703Z,30.84
2023-04-23T14:04:23.690Z,30.47
2023-04-23T14:07:25.030Z,30.63
2023-04-23T14:10:25.660Z,30.55
2023-04-23T14:13:26.669Z,30.61
2023-04-23T14:16:27.813Z,30.71
2023-04-23T14:19:28.692Z,30.89
2023-04-23T14:22:29.630Z,30.60
2023-04-23T14:25:38.691Z,30.50
2023-04-23T14:28:43.666Z,30.58
2023-04-23T14:31:44.747Z,30.73
2023-04-23T14:34:45.725Z,30.70
2023-04-23T14:37:49.695Z,30.82
2023-04-23T14:40:50.664Z,30.67
2023-04-23T14:43:51.691Z,30.64
2023-04-23T14:46:52.670Z,30.89
2023-04-23T14:49:53.776Z,30.81
2023-04-23T14:52:54.649Z,31.16
2023-04-23T14:55:55.690Z,31.02
2023-04-23T14:58:56.634Z,30.83
2023-04-23T15:01:57.761Z,30.68
2023-04-23T15:04:58.636Z,30.55
2023-04-23T15:07:59.819Z,30.45
2023-04-23T15:11:00.649Z,30.79
2023-04-23T15:14:30.696Z,30.85
2023-04-23T15:17:31.701Z,30.76
2023-04-23T15:20:32.789Z,30.68
2023-04-23T15:23:33.676Z,30.90
2023-04-23T15:26:34.707Z,31.01
2023-04-23T15:29:35.634Z,31.16
2023-04-23T15:32:36.675Z,30.84
2023-04-23T15:35:41.687Z,30.64
2023-04-23T15:38:42.704Z,30.52
2023-04-23T15:41:46.060Z,30.71
2023-04-23T15:44:46.712Z,30.45
2023-04-23T15:47:48.685Z,30.48
2023-04-23T15:50:49.709Z,30.44
2023-04-23T15:53:50.652Z,30.38
2023-04-23T15:56:51.669Z,30.33
2023-04-23T15:59:52.661Z,30.30
2023-04-23T16:02:53.866Z,30.69
2023-04-23T16:05:56.654Z,30.81
2023-04-23T16:08:58.000Z,30.72
2023-04-23T16:11:58.614Z,30.24
2023-04-23T16:14:59.680Z,30.93
2023-04-23T16:18:00.731Z,30.32
2023-04-23T16:21:01.692Z,30.58
2023-04-23T16:24:02.659Z,31.00
2023-04-23T16:27:03.678Z,31.15
2023-04-23T16:30:07.644Z,31.16
2023-04-23T16:33:08.740Z,31.40
2023-04-23T16:36:09.623Z,31.22
2023-04-23T16:39:10.673Z,31.16
2023-04-23T16:42:11.644Z,30.86
2023-04-23T16:45:12.696Z,31.16
2023-04-23T16:48:13.661Z,30.98
2023-04-23T16:51:14.693Z,30.73
2023-04-23T16:54:15.607Z,31.01
2023-04-23T16:57:16.639Z,30.96
2023-04-23T17:00:18.620Z,31.36
2023-04-23T17:03:19.802Z,31.53
2023-04-23T17:06:24.617Z,31.15
2023-04-23T17:09:25.978Z,31.20
2023-04-23T17:12:26.625Z,31.62
2023-04-23T17:15:29.668Z,31.21
2023-04-23T17:18:30.632Z,31.52
2023-04-23T17:21:31.679Z,31.64
2023-04-23T17:24:32.678Z,31.23
2023-04-23T17:27:33.662Z,31.34
2023-04-23T17:30:34.633Z,31.43
2023-04-23T17:33:37.664Z,31.30
2023-04-23T17:36:38.669Z,31.42
2023-04-23T17:39:39.660Z,31.61
2023-04-23T17:42:40.630Z,31.54
2023-04-23T17:45:41.677Z,31.38
2023-04-23T17:48:42.595Z,31.32
2023-04-23T17:51:43.648Z,31.54
2023-04-23T17:54:44.669Z,31.69
2023-04-23T17:57:45.644Z,31.41
2023-04-23T18:00:49.657Z,31.72
2023-04-23T18:03:50.790Z,31.77
2023-04-23T18:06:51.615Z,31.97
2023-04-23T18:09:52.862Z,31.48
2023-04-23T18:12:53.631Z,31.51
2023-04-23T18:15:56.658Z,31.46
2023-04-23T18:18:57.626Z,31.68
2023-04-23T18:21:58.650Z,31.69
2023-04-23T18:24:59.600Z,31.54
2023-04-23T18:28:00.668Z,31.47
2023-04-23T18:31:02.800Z,31.87
2023-04-23T18:34:10.641Z,31.66
2023-04-23T18:37:15.598Z,31.77
2023-04-23T18:40:16.662Z,31.73
2023-04-23T18:43:17.614Z,31.95
2023-04-23T18:46:18.752Z,31.82
2023-04-23T18:49:19.639Z,31.90
2023-04-23T18:52:20.634Z,31.98
2023-04-23T18:55:21.625Z,31.95
2023-04-23T18:58:22.652Z,32.16
2023-04-23T19:01:23.622Z,31.84
2023-04-23T19:04:24.765Z,32.00
2023-04-23T19:07:25.600Z,31.69
2023-04-23T19:10:26.799Z,32.20
2023-04-23T19:13:28.581Z,31.89
2023-04-23T19:16:29.785Z,31.73
2023-04-23T19:19:30.594Z,31.86
2023-04-23T19:22:32.659Z,31.84
2023-04-23T19:25:33.610Z,31.90
2023-04-23T19:28:34.662Z,31.89
2023-04-23T19:31:35.611Z,31.82
2023-04-23T19:34:36.666Z,31.97
2023-04-23T19:37:37.591Z,31.96
2023-04-23T19:40:38.670Z,31.90
2023-04-23T19:43:39.614Z,31.96
2023-04-23T19:46:40.677Z,31.76
2023-04-23T19:49:41.766Z,31.62
2023-04-23T19:52:42.621Z,31.81
2023-04-23T19:55:43.606Z,31.88
2023-04-23T19:58:44.634Z,31.86
2023-04-23T20:01:45.605Z,31.32
2023-04-23T20:04:46.671Z,31.54
2023-04-23T20:07:47.581Z,31.68
2023-04-23T20:10:48.891Z,31.63
2023-04-23T20:13:49.772Z,31.52
2023-04-23T20:16:51.027Z,31.69
2023-04-23T20:19:51.626Z,31.59
2023-04-23T20:22:52.652Z,31.56
2023-04-23T20:25:54.621Z,31.14
2023-04-23T20:28:56.658Z,31.02
2023-04-23T20:31:57.679Z,31.66
2023-04-23T20:34:59.645Z,31.44
2023-04-23T20:38:01.614Z,31.60
2023-04-23T20:41:03.636Z,31.66
2023-04-23T20:44:04.590Z,31.65
2023-04-23T20:47:05.678Z,31.60
2023-04-23T20:50:06.578Z,31.82
2023-04-23T20:53:07.660Z,31.54
2023-04-23T20:56:08.582Z,31.89
2023-04-23T20:59:09.637Z,31.89
2023-04-23T21:02:10.718Z,31.79
2023-04-23T21:05:11.659Z,31.63
2023-04-23T21:08:12.601Z,31.83
2023-04-23T21:11:17.732Z,31.59
2023-04-23T21:14:18.633Z,31.98
2023-04-23T21:17:19.865Z,31.62
2023-04-23T21:20:20.587Z,31.91
2023-04-23T21:23:21.622Z,31.78
2023-04-23T21:26:22.637Z,31.52
2023-04-23T21:29:23.614Z,31.63
2023-04-23T21:32:24.605Z,31.73
2023-04-23T21:35:25.638Z,31.57
2023-04-23T21:38:26.623Z,31.62
2023-04-23T21:41:27.671Z,31.62
2023-04-23T21:44:28.679Z,31.43
2023-04-23T21:47:29.638Z,31.55
2023-04-23T21:50:30.596Z,31.45
2023-04-23T21:53:31.621Z,31.56
2023-04-23T21:56:32.550Z,31.34
2023-04-23T21:59:33.671Z,31.38
2023-04-23T22:02:34.755Z,31.33
2023-04-23T22:05:35.617Z,31.32
2023-04-23T22:08:36.605Z,31.30
2023-04-23T22:11:37.681Z,31.50
2023-04-23T22:14:38.587Z,31.45
2023-04-23T22:17:42.804Z,31.33
2023-04-23T22:20:44.548Z,31.47
2023-04-23T22:23:45.631Z,31.34
2023-04-23T22:26:46.584Z,31.51
2023-04-23T22:29:47.624Z,31.39
2023-04-23T22:32:48.653Z,31.30
2023-04-23T22:35:49.629Z,31.33
2023-04-23T22:38:50.596Z,31.30
2023-04-23T22:41:51.632Z,31.32
2023-04-23T22:44:52.568Z,31.28
2023-04-23T22:47:53.649Z,31.30
2023-04-23T22:50:57.613Z,31.24
2023-04-23T22:53:58.614Z,31.21
2023-04-23T22:56:59.588Z,31.29
2023-04-23T23:00:00.642Z,31.20
2023-04-23T23:03:01.648Z,31.19
2023-04-23T23:06:02.628Z,31.34
2023-04-23T23:09:03.566Z,31.30
2023-04-23T23:12:04.654Z,31.36
2023-04-23T23:15:05.569Z,31.40
2023-04-23T23:18:06.892Z,31.32
2023-04-23T23:21:07.560Z,31.41
2023-04-23T23:24:08.593Z,31.22
2023-04-23T23:27:09.563Z,31.30
2023-04-23T23:30:12.615Z,31.24
2023-04-23T23:33:13.559Z,31.32
2023-04-23T23:36:14.612Z,31.32
2023-04-23T23:39:15.572Z,31.19
2023-04-23T23:42:16.618Z,31.47
2023-04-23T23:45:17.571Z,31.23
2023-04-23T23:48:18.598Z,31.30
2023-04-23T23:51:19.542Z,31.24
2023-04-23T23:54:20.634Z,31.15
2023-04-23T23:57:21.574Z,31.10
